vendredi 25 avril 2014

ALERTE SPOTTING 25/04/14

IL9 CU-T1250 Cubana
   CU440/CU441  08h25/10h50

320 F-GHQE Air Corsica (blanc avec titre)
  XK4511/XK4500  07h35/08h30
 
ABB F-GSTD Airbus Beluga
   dpt  10h00

74L A9C-HAK Bahrain
   dpt  BAH002  10h15

E95 EC-LFZ Air Europa (sticker)
   UX1223/UX1020  10h45/11h35

32A EC-LVP Vueling (couleur Linking Europe)
          dpt VY6250  06h45
       VY6251/VY8178  11h35/12h10
    VY8177/VY1981  16h35/17h40
  arv VY1982  22h55

 Manque les prévisions de : certains AB / AH / AZ / BA / BE / IB / KM / TP / TU
*** Heures en Local Time **
Prévisions matinales soumises à modifications de dernières minute.
 Voir le log du mois pour la version 'définitive' de la journée: 
 http://www.airkalo.com/ORLYAVIATION/Logdumois.html

le TAF de la journée:
*** avis d'orage de 07h00 à 14h00 ***
METAR: LFPO 250300Z 28004KT 2000 BR FEW013 BKN026 13/12 Q1009 NOSIG=
TAF LONG: AMD LFPO 250036Z 2500/2606 36006KT 4500 BR SCT010 BKN050 PROB30
TEMPO 2501/2503 2000 TSRA SCT030CB BKN060 TEMPO 2503/2509 4000 -RA
BKN008 BECMG 2509/2512 28010KT BKN015 TEMPO 2509/2521 4000 -SHRA
BKN012 SCT020TCU PROB30 TEMPO 2512/2516 27015G25KT 3000 -TSRA
SCT020CB BECMG 2521/2524 20006KT SCT010 TEMPO 2603/2606 7000 NSC=